sensor_id;sensor_type;location;lat;lon;timestamp;P1;durP1;ratioP1;P2;durP2;ratioP2
17614;SDS011;8926;49.720;6.576;2022-09-09T00:00:53;1.33;;;0.50;;
17614;SDS011;8926;49.720;6.576;2022-09-09T00:03:31;0.40;;;0.40;;
17614;SDS011;8926;49.720;6.576;2022-09-09T00:06:26;0.37;;;0.37;;
17614;SDS011;8926;49.720;6.576;2022-09-09T00:09:08;0.70;;;0.30;;
17614;SDS011;8926;49.720;6.576;2022-09-09T00:11:46;0.40;;;0.40;;
17614;SDS011;8926;49.720;6.576;2022-09-09T00:14:18;0.67;;;0.33;;
17614;SDS011;8926;49.720;6.576;2022-09-09T00:16:54;0.50;;;0.50;;
17614;SDS011;8926;49.720;6.576;2022-09-09T00:19:46;0.60;;;0.40;;
17614;SDS011;8926;49.720;6.576;2022-09-09T00:22:16;1.20;;;0.40;;
17614;SDS011;8926;49.720;6.576;2022-09-09T00:24:54;0.60;;;0.50;;
17614;SDS011;8926;49.720;6.576;2022-09-09T00:27:25;0.63;;;0.50;;
17614;SDS011;8926;49.720;6.576;2022-09-09T00:29:58;0.67;;;0.37;;
17614;SDS011;8926;49.720;6.576;2022-09-09T00:32:30;0.73;;;0.53;;
17614;SDS011;8926;49.720;6.576;2022-09-09T00:35:00;0.47;;;0.47;;
17614;SDS011;8926;49.720;6.576;2022-09-09T00:37:31;0.50;;;0.37;;
17614;SDS011;8926;49.720;6.576;2022-09-09T00:39:59;0.90;;;0.50;;
17614;SDS011;8926;49.720;6.576;2022-09-09T00:42:45;0.67;;;0.50;;
17614;SDS011;8926;49.720;6.576;2022-09-09T00:45:21;0.50;;;0.47;;
17614;SDS011;8926;49.720;6.576;2022-09-09T00:48:16;1.47;;;0.50;;
17614;SDS011;8926;49.720;6.576;2022-09-09T00:51:05;0.57;;;0.50;;
17614;SDS011;8926;49.720;6.576;2022-09-09T00:53:56;1.93;;;0.70;;
17614;SDS011;8926;49.720;6.576;2022-09-09T00:56:42;0.93;;;0.67;;
17614;SDS011;8926;49.720;6.576;2022-09-09T01:05:39;1.87;;;0.90;;
17614;SDS011;8926;49.720;6.576;2022-09-09T01:08:28;1.03;;;0.67;;
17614;SDS011;8926;49.720;6.576;2022-09-09T01:10:58;1.13;;;0.60;;
17614;SDS011;8926;49.720;6.576;2022-09-09T01:15:51;1.47;;;0.60;;
17614;SDS011;8926;49.720;6.576;2022-09-09T01:18:19;1.00;;;0.70;;
17614;SDS011;8926;49.720;6.576;2022-09-09T01:28:46;1.00;;;0.90;;
17614;SDS011;8926;49.720;6.576;2022-09-09T01:31:18;0.53;;;0.40;;
17614;SDS011;8926;49.720;6.576;2022-09-09T01:33:46;0.40;;;0.40;;
17614;SDS011;8926;49.720;6.576;2022-09-09T01:36:17;0.67;;;0.50;;
17614;SDS011;8926;49.720;6.576;2022-09-09T01:38:56;0.87;;;0.47;;
17614;SDS011;8926;49.720;6.576;2022-09-09T01:41:22;0.50;;;0.40;;
17614;SDS011;8926;49.720;6.576;2022-09-09T01:43:47;0.80;;;0.30;;
17614;SDS011;8926;49.720;6.576;2022-09-09T01:46:14;0.93;;;0.57;;
17614;SDS011;8926;49.720;6.576;2022-09-09T01:48:40;0.83;;;0.40;;
17614;SDS011;8926;49.720;6.576;2022-09-09T01:51:07;0.83;;;0.40;;
17614;SDS011;8926;49.720;6.576;2022-09-09T01:53:34;0.60;;;0.37;;
17614;SDS011;8926;49.720;6.576;2022-09-09T01:56:14;0.87;;;0.50;;
17614;SDS011;8926;49.720;6.576;2022-09-09T01:58:47;0.57;;;0.30;;
17614;SDS011;8926;49.720;6.576;2022-09-09T02:04:18;0.40;;;0.33;;
17614;SDS011;8926;49.720;6.576;2022-09-09T02:07:03;0.97;;;0.57;;
17614;SDS011;8926;49.720;6.576;2022-09-09T02:09:35;1.07;;;0.53;;
17614;SDS011;8926;49.720;6.576;2022-09-09T02:12:04;0.93;;;0.47;;
17614;SDS011;8926;49.720;6.576;2022-09-09T02:14:39;1.10;;;0.50;;
17614;SDS011;8926;49.720;6.576;2022-09-09T02:17:09;0.63;;;0.40;;
17614;SDS011;8926;49.720;6.576;2022-09-09T02:19:37;1.03;;;0.70;;
17614;SDS011;8926;49.720;6.576;2022-09-09T02:22:07;1.90;;;0.70;;
17614;SDS011;8926;49.720;6.576;2022-09-09T02:24:33;0.57;;;0.50;;
17614;SDS011;8926;49.720;6.576;2022-09-09T02:27:01;0.87;;;0.57;;
17614;SDS011;8926;49.720;6.576;2022-09-09T02:29:31;0.30;;;0.30;;
17614;SDS011;8926;49.720;6.576;2022-09-09T02:32:01;1.00;;;0.40;;
17614;SDS011;8926;49.720;6.576;2022-09-09T02:34:30;2.00;;;0.63;;
17614;SDS011;8926;49.720;6.576;2022-09-09T02:36:58;1.60;;;0.67;;
17614;SDS011;8926;49.720;6.576;2022-09-09T02:39:25;1.20;;;0.57;;
17614;SDS011;8926;49.720;6.576;2022-09-09T02:41:51;1.73;;;0.70;;
17614;SDS011;8926;49.720;6.576;2022-09-09T02:44:17;1.60;;;0.70;;
17614;SDS011;8926;49.720;6.576;2022-09-09T02:49:34;3.40;;;1.13;;
17614;SDS011;8926;49.720;6.576;2022-09-09T02:52:14;2.03;;;1.00;;
17614;SDS011;8926;49.720;6.576;2022-09-09T02:54:43;1.20;;;1.00;;
17614;SDS011;8926;49.720;6.576;2022-09-09T02:57:10;1.90;;;0.80;;
17614;SDS011;8926;49.720;6.576;2022-09-09T02:59:36;1.37;;;0.77;;
17614;SDS011;8926;49.720;6.576;2022-09-09T03:02:02;1.10;;;0.60;;
17614;SDS011;8926;49.720;6.576;2022-09-09T03:04:28;1.27;;;0.60;;
17614;SDS011;8926;49.720;6.576;2022-09-09T03:06:55;1.73;;;0.77;;
17614;SDS011;8926;49.720;6.576;2022-09-09T03:09:20;0.93;;;0.60;;
17614;SDS011;8926;49.720;6.576;2022-09-09T03:11:46;1.73;;;0.60;;
17614;SDS011;8926;49.720;6.576;2022-09-09T03:14:11;1.40;;;0.63;;
17614;SDS011;8926;49.720;6.576;2022-09-09T03:16:37;0.97;;;0.70;;
17614;SDS011;8926;49.720;6.576;2022-09-09T03:19:02;1.03;;;0.60;;
17614;SDS011;8926;49.720;6.576;2022-09-09T03:21:28;0.60;;;0.50;;
17614;SDS011;8926;49.720;6.576;2022-09-09T03:23:53;0.70;;;0.53;;
17614;SDS011;8926;49.720;6.576;2022-09-09T03:26:19;2.00;;;0.77;;
17614;SDS011;8926;49.720;6.576;2022-09-09T03:28:45;0.63;;;0.50;;
17614;SDS011;8926;49.720;6.576;2022-09-09T03:31:10;1.73;;;0.60;;
17614;SDS011;8926;49.720;6.576;2022-09-09T03:33:39;1.30;;;0.70;;
17614;SDS011;8926;49.720;6.576;2022-09-09T03:36:06;1.10;;;0.63;;
17614;SDS011;8926;49.720;6.576;2022-09-09T03:38:33;3.13;;;1.10;;
17614;SDS011;8926;49.720;6.576;2022-09-09T03:40:59;2.33;;;0.87;;
17614;SDS011;8926;49.720;6.576;2022-09-09T03:43:26;1.40;;;0.57;;
17614;SDS011;8926;49.720;6.576;2022-09-09T03:45:52;4.13;;;0.90;;
17614;SDS011;8926;49.720;6.576;2022-09-09T03:48:21;2.27;;;1.00;;
17614;SDS011;8926;49.720;6.576;2022-09-09T03:50:47;1.67;;;0.63;;
17614;SDS011;8926;49.720;6.576;2022-09-09T03:53:14;1.30;;;0.57;;
17614;SDS011;8926;49.720;6.576;2022-09-09T03:55:44;1.57;;;0.80;;
17614;SDS011;8926;49.720;6.576;2022-09-09T03:58:12;2.07;;;0.73;;
17614;SDS011;8926;49.720;6.576;2022-09-09T04:00:38;2.47;;;1.03;;
17614;SDS011;8926;49.720;6.576;2022-09-09T04:03:07;2.27;;;1.00;;
17614;SDS011;8926;49.720;6.576;2022-09-09T04:05:33;2.87;;;1.40;;
17614;SDS011;8926;49.720;6.576;2022-09-09T04:07:59;1.70;;;0.90;;
17614;SDS011;8926;49.720;6.576;2022-09-09T04:10:24;2.87;;;1.27;;
17614;SDS011;8926;49.720;6.576;2022-09-09T04:12:49;3.53;;;0.90;;
17614;SDS011;8926;49.720;6.576;2022-09-09T04:15:15;3.03;;;1.23;;
17614;SDS011;8926;49.720;6.576;2022-09-09T04:17:40;3.63;;;1.03;;
17614;SDS011;8926;49.720;6.576;2022-09-09T04:20:05;3.23;;;1.17;;
17614;SDS011;8926;49.720;6.576;2022-09-09T04:22:33;2.97;;;1.33;;
17614;SDS011;8926;49.720;6.576;2022-09-09T04:24:59;5.03;;;1.30;;
17614;SDS011;8926;49.720;6.576;2022-09-09T04:27:24;3.37;;;1.37;;
17614;SDS011;8926;49.720;6.576;2022-09-09T04:29:49;3.17;;;1.23;;
17614;SDS011;8926;49.720;6.576;2022-09-09T04:32:14;1.47;;;0.70;;
17614;SDS011;8926;49.720;6.576;2022-09-09T04:34:40;4.13;;;1.90;;
17614;SDS011;8926;49.720;6.576;2022-09-09T04:37:06;2.60;;;1.20;;
17614;SDS011;8926;49.720;6.576;2022-09-09T04:39:31;4.27;;;1.70;;
17614;SDS011;8926;49.720;6.576;2022-09-09T04:41:56;4.07;;;1.20;;
17614;SDS011;8926;49.720;6.576;2022-09-09T04:44:22;5.07;;;1.20;;
17614;SDS011;8926;49.720;6.576;2022-09-09T04:46:47;2.30;;;1.00;;
17614;SDS011;8926;49.720;6.576;2022-09-09T04:49:12;3.13;;;1.30;;
17614;SDS011;8926;49.720;6.576;2022-09-09T04:51:38;1.93;;;1.00;;
17614;SDS011;8926;49.720;6.576;2022-09-09T04:54:03;2.77;;;1.37;;
17614;SDS011;8926;49.720;6.576;2022-09-09T04:56:30;3.20;;;1.30;;
17614;SDS011;8926;49.720;6.576;2022-09-09T04:58:55;3.50;;;1.50;;
17614;SDS011;8926;49.720;6.576;2022-09-09T05:01:21;3.10;;;1.20;;
17614;SDS011;8926;49.720;6.576;2022-09-09T05:03:48;2.77;;;1.10;;
17614;SDS011;8926;49.720;6.576;2022-09-09T05:06:14;3.67;;;1.20;;
17614;SDS011;8926;49.720;6.576;2022-09-09T05:08:41;3.37;;;1.10;;
17614;SDS011;8926;49.720;6.576;2022-09-09T05:11:13;3.27;;;1.20;;
17614;SDS011;8926;49.720;6.576;2022-09-09T05:13:47;2.73;;;0.90;;
17614;SDS011;8926;49.720;6.576;2022-09-09T05:16:13;2.57;;;1.07;;
17614;SDS011;8926;49.720;6.576;2022-09-09T05:18:39;1.63;;;1.13;;
17614;SDS011;8926;49.720;6.576;2022-09-09T05:21:06;5.10;;;1.53;;
17614;SDS011;8926;49.720;6.576;2022-09-09T05:23:32;1.70;;;0.90;;
17614;SDS011;8926;49.720;6.576;2022-09-09T05:25:59;3.17;;;0.80;;
17614;SDS011;8926;49.720;6.576;2022-09-09T05:28:25;2.53;;;0.90;;
17614;SDS011;8926;49.720;6.576;2022-09-09T05:30:57;2.23;;;1.30;;
17614;SDS011;8926;49.720;6.576;2022-09-09T05:33:24;3.70;;;1.70;;
17614;SDS011;8926;49.720;6.576;2022-09-09T05:38:46;4.07;;;1.20;;
17614;SDS011;8926;49.720;6.576;2022-09-09T05:41:12;3.27;;;1.50;;
17614;SDS011;8926;49.720;6.576;2022-09-09T05:43:40;3.97;;;1.93;;
17614;SDS011;8926;49.720;6.576;2022-09-09T05:46:06;3.53;;;1.63;;
17614;SDS011;8926;49.720;6.576;2022-09-09T05:48:33;3.23;;;1.00;;
17614;SDS011;8926;49.720;6.576;2022-09-09T05:51:04;3.10;;;1.30;;
17614;SDS011;8926;49.720;6.576;2022-09-09T05:53:32;3.00;;;1.17;;
17614;SDS011;8926;49.720;6.576;2022-09-09T05:55:59;4.17;;;1.50;;
17614;SDS011;8926;49.720;6.576;2022-09-09T05:58:26;4.83;;;1.33;;
17614;SDS011;8926;49.720;6.576;2022-09-09T06:00:52;3.23;;;1.50;;
17614;SDS011;8926;49.720;6.576;2022-09-09T06:03:19;7.60;;;1.57;;
17614;SDS011;8926;49.720;6.576;2022-09-09T06:05:56;6.17;;;1.60;;
17614;SDS011;8926;49.720;6.576;2022-09-09T06:08:22;5.90;;;1.60;;
17614;SDS011;8926;49.720;6.576;2022-09-09T06:10:47;4.47;;;1.60;;
17614;SDS011;8926;49.720;6.576;2022-09-09T06:13:12;1.67;;;1.00;;
17614;SDS011;8926;49.720;6.576;2022-09-09T06:15:38;5.50;;;1.70;;
17614;SDS011;8926;49.720;6.576;2022-09-09T06:18:03;4.37;;;1.27;;
17614;SDS011;8926;49.720;6.576;2022-09-09T06:20:28;4.57;;;1.63;;
17614;SDS011;8926;49.720;6.576;2022-09-09T06:22:55;3.50;;;1.30;;
17614;SDS011;8926;49.720;6.576;2022-09-09T06:25:20;3.07;;;1.03;;
17614;SDS011;8926;49.720;6.576;2022-09-09T06:27:48;4.70;;;1.60;;
17614;SDS011;8926;49.720;6.576;2022-09-09T06:30:14;4.63;;;1.50;;
17614;SDS011;8926;49.720;6.576;2022-09-09T06:32:39;4.17;;;1.50;;
17614;SDS011;8926;49.720;6.576;2022-09-09T06:35:05;3.73;;;1.70;;
17614;SDS011;8926;49.720;6.576;2022-09-09T06:37:31;3.87;;;1.63;;
17614;SDS011;8926;49.720;6.576;2022-09-09T06:39:56;5.80;;;1.53;;
17614;SDS011;8926;49.720;6.576;2022-09-09T06:42:21;2.40;;;1.30;;
17614;SDS011;8926;49.720;6.576;2022-09-09T06:44:47;3.07;;;1.27;;
17614;SDS011;8926;49.720;6.576;2022-09-09T06:47:12;3.37;;;1.37;;
17614;SDS011;8926;49.720;6.576;2022-09-09T06:49:40;4.90;;;1.70;;
17614;SDS011;8926;49.720;6.576;2022-09-09T06:52:05;4.00;;;1.43;;
17614;SDS011;8926;49.720;6.576;2022-09-09T06:54:31;4.70;;;1.30;;
17614;SDS011;8926;49.720;6.576;2022-09-09T06:56:56;3.27;;;1.40;;
17614;SDS011;8926;49.720;6.576;2022-09-09T06:59:22;2.37;;;1.07;;
17614;SDS011;8926;49.720;6.576;2022-09-09T07:01:47;4.07;;;1.70;;
17614;SDS011;8926;49.720;6.576;2022-09-09T07:04:12;5.93;;;1.87;;
17614;SDS011;8926;49.720;6.576;2022-09-09T07:06:39;3.03;;;1.37;;
17614;SDS011;8926;49.720;6.576;2022-09-09T07:09:09;3.10;;;1.03;;
17614;SDS011;8926;49.720;6.576;2022-09-09T07:14:06;4.03;;;1.60;;
17614;SDS011;8926;49.720;6.576;2022-09-09T07:16:32;2.93;;;1.47;;
17614;SDS011;8926;49.720;6.576;2022-09-09T07:19:00;3.20;;;1.20;;
17614;SDS011;8926;49.720;6.576;2022-09-09T07:21:25;4.13;;;1.30;;
17614;SDS011;8926;49.720;6.576;2022-09-09T07:23:52;3.67;;;1.17;;
17614;SDS011;8926;49.720;6.576;2022-09-09T07:26:19;3.40;;;1.20;;
17614;SDS011;8926;49.720;6.576;2022-09-09T07:28:46;5.47;;;1.77;;
17614;SDS011;8926;49.720;6.576;2022-09-09T07:31:19;3.80;;;1.40;;
17614;SDS011;8926;49.720;6.576;2022-09-09T07:33:46;6.43;;;1.87;;
17614;SDS011;8926;49.720;6.576;2022-09-09T07:36:16;3.97;;;1.50;;
17614;SDS011;8926;49.720;6.576;2022-09-09T07:38:47;4.43;;;1.60;;
17614;SDS011;8926;49.720;6.576;2022-09-09T07:41:16;3.17;;;1.20;;
17614;SDS011;8926;49.720;6.576;2022-09-09T07:43:44;6.97;;;1.70;;
17614;SDS011;8926;49.720;6.576;2022-09-09T07:46:12;2.27;;;1.10;;
17614;SDS011;8926;49.720;6.576;2022-09-09T07:48:39;3.87;;;1.47;;
17614;SDS011;8926;49.720;6.576;2022-09-09T07:51:25;4.10;;;1.50;;
17614;SDS011;8926;49.720;6.576;2022-09-09T07:53:54;4.33;;;1.50;;
17614;SDS011;8926;49.720;6.576;2022-09-09T07:56:22;3.90;;;1.40;;
17614;SDS011;8926;49.720;6.576;2022-09-09T07:58:48;5.43;;;1.43;;
17614;SDS011;8926;49.720;6.576;2022-09-09T08:03:43;6.97;;;2.00;;
17614;SDS011;8926;49.720;6.576;2022-09-09T08:06:12;5.20;;;1.50;;
17614;SDS011;8926;49.720;6.576;2022-09-09T08:08:38;3.00;;;1.30;;
17614;SDS011;8926;49.720;6.576;2022-09-09T08:11:13;4.10;;;1.47;;
17614;SDS011;8926;49.720;6.576;2022-09-09T08:13:42;3.80;;;1.70;;
17614;SDS011;8926;49.720;6.576;2022-09-09T08:18:38;3.07;;;1.53;;
17614;SDS011;8926;49.720;6.576;2022-09-09T08:21:14;4.20;;;1.63;;
17614;SDS011;8926;49.720;6.576;2022-09-09T08:23:42;5.83;;;1.60;;
17614;SDS011;8926;49.720;6.576;2022-09-09T08:26:11;4.57;;;1.77;;
17614;SDS011;8926;49.720;6.576;2022-09-09T08:28:38;4.47;;;1.60;;
17614;SDS011;8926;49.720;6.576;2022-09-09T08:31:07;5.33;;;2.03;;
17614;SDS011;8926;49.720;6.576;2022-09-09T08:33:32;3.47;;;1.67;;
17614;SDS011;8926;49.720;6.576;2022-09-09T08:35:58;3.70;;;1.60;;
17614;SDS011;8926;49.720;6.576;2022-09-09T08:38:24;1.47;;;1.00;;
17614;SDS011;8926;49.720;6.576;2022-09-09T08:40:49;3.87;;;1.90;;
17614;SDS011;8926;49.720;6.576;2022-09-09T08:43:20;5.20;;;1.70;;
17614;SDS011;8926;49.720;6.576;2022-09-09T08:45:50;4.30;;;1.63;;
17614;SDS011;8926;49.720;6.576;2022-09-09T08:51:01;3.00;;;1.40;;
17614;SDS011;8926;49.720;6.576;2022-09-09T08:53:35;7.40;;;2.43;;
17614;SDS011;8926;49.720;6.576;2022-09-09T08:56:12;5.63;;;1.77;;
17614;SDS011;8926;49.720;6.576;2022-09-09T08:58:48;2.97;;;1.30;;
17614;SDS011;8926;49.720;6.576;2022-09-09T09:07:00;2.30;;;1.27;;
17614;SDS011;8926;49.720;6.576;2022-09-09T09:09:42;1.50;;;0.83;;
17614;SDS011;8926;49.720;6.576;2022-09-09T09:12:17;2.47;;;1.27;;
17614;SDS011;8926;49.720;6.576;2022-09-09T09:14:46;1.37;;;0.97;;
17614;SDS011;8926;49.720;6.576;2022-09-09T09:17:14;1.00;;;0.80;;
17614;SDS011;8926;49.720;6.576;2022-09-09T09:19:42;2.57;;;1.00;;
17614;SDS011;8926;49.720;6.576;2022-09-09T09:24:52;2.70;;;1.20;;
17614;SDS011;8926;49.720;6.576;2022-09-09T09:28:22;1.13;;;1.00;;
17614;SDS011;8926;49.720;6.576;2022-09-09T09:30:39;3.30;;;1.30;;
17614;SDS011;8926;49.720;6.576;2022-09-09T09:35:45;1.13;;;0.73;;
17614;SDS011;8926;49.720;6.576;2022-09-09T09:38:17;1.47;;;0.97;;
17614;SDS011;8926;49.720;6.576;2022-09-09T09:40:52;2.87;;;1.57;;
17614;SDS011;8926;49.720;6.576;2022-09-09T09:43:35;2.67;;;1.57;;
17614;SDS011;8926;49.720;6.576;2022-09-09T09:46:05;1.87;;;1.10;;
17614;SDS011;8926;49.720;6.576;2022-09-09T09:48:42;3.73;;;1.20;;
17614;SDS011;8926;49.720;6.576;2022-09-09T09:51:09;3.63;;;1.60;;
17614;SDS011;8926;49.720;6.576;2022-09-09T09:53:38;2.90;;;1.40;;
17614;SDS011;8926;49.720;6.576;2022-09-09T09:56:08;3.73;;;1.50;;
17614;SDS011;8926;49.720;6.576;2022-09-09T09:58:56;3.23;;;1.27;;
17614;SDS011;8926;49.720;6.576;2022-09-09T10:01:22;5.20;;;1.73;;
17614;SDS011;8926;49.720;6.576;2022-09-09T10:04:00;2.33;;;1.10;;
17614;SDS011;8926;49.720;6.576;2022-09-09T10:06:34;2.30;;;1.07;;
17614;SDS011;8926;49.720;6.576;2022-09-09T10:09:04;1.80;;;1.40;;
17614;SDS011;8926;49.720;6.576;2022-09-09T10:19:41;1.33;;;0.80;;
17614;SDS011;8926;49.720;6.576;2022-09-09T10:22:26;2.90;;;1.20;;
17614;SDS011;8926;49.720;6.576;2022-09-09T10:27:47;2.47;;;1.13;;
17614;SDS011;8926;49.720;6.576;2022-09-09T10:30:47;3.27;;;1.10;;
17614;SDS011;8926;49.720;6.576;2022-09-09T10:33:27;2.10;;;1.00;;
17614;SDS011;8926;49.720;6.576;2022-09-09T10:36:00;1.97;;;0.87;;
17614;SDS011;8926;49.720;6.576;2022-09-09T10:38:46;1.17;;;0.83;;
17614;SDS011;8926;49.720;6.576;2022-09-09T10:43:56;1.33;;;0.90;;
17614;SDS011;8926;49.720;6.576;2022-09-09T10:47:14;1.57;;;0.83;;
17614;SDS011;8926;49.720;6.576;2022-09-09T10:52:41;1.80;;;0.73;;
17614;SDS011;8926;49.720;6.576;2022-09-09T10:55:24;1.80;;;0.90;;
17614;SDS011;8926;49.720;6.576;2022-09-09T10:57:53;1.97;;;0.87;;
17614;SDS011;8926;49.720;6.576;2022-09-09T11:00:31;1.47;;;0.80;;
17614;SDS011;8926;49.720;6.576;2022-09-09T11:03:21;2.53;;;1.03;;
17614;SDS011;8926;49.720;6.576;2022-09-09T11:05:55;1.53;;;0.73;;
17614;SDS011;8926;49.720;6.576;2022-09-09T11:08:27;3.20;;;1.17;;
17614;SDS011;8926;49.720;6.576;2022-09-09T11:16:27;2.53;;;0.80;;
17614;SDS011;8926;49.720;6.576;2022-09-09T11:19:03;1.70;;;0.83;;
17614;SDS011;8926;49.720;6.576;2022-09-09T11:21:37;3.43;;;1.00;;
17614;SDS011;8926;49.720;6.576;2022-09-09T11:24:12;2.50;;;1.00;;
17614;SDS011;8926;49.720;6.576;2022-09-09T11:26:47;2.20;;;0.80;;
17614;SDS011;8926;49.720;6.576;2022-09-09T11:40:46;2.50;;;0.90;;
17614;SDS011;8926;49.720;6.576;2022-09-09T11:45:59;4.33;;;0.80;;
17614;SDS011;8926;49.720;6.576;2022-09-09T11:48:37;1.63;;;0.60;;
17614;SDS011;8926;49.720;6.576;2022-09-09T11:51:12;0.90;;;0.40;;
17614;SDS011;8926;49.720;6.576;2022-09-09T11:53:51;0.60;;;0.50;;
17614;SDS011;8926;49.720;6.576;2022-09-09T11:56:26;1.10;;;0.50;;
17614;SDS011;8926;49.720;6.576;2022-09-09T11:59:04;1.87;;;0.60;;
17614;SDS011;8926;49.720;6.576;2022-09-09T12:01:41;2.00;;;0.47;;
17614;SDS011;8926;49.720;6.576;2022-09-09T12:06:52;0.67;;;0.67;;
17614;SDS011;8926;49.720;6.576;2022-09-09T12:11:52;0.70;;;0.47;;
17614;SDS011;8926;49.720;6.576;2022-09-09T12:14:19;1.23;;;0.77;;
17614;SDS011;8926;49.720;6.576;2022-09-09T12:17:09;1.70;;;0.50;;
17614;SDS011;8926;49.720;6.576;2022-09-09T12:19:42;2.13;;;0.70;;
17614;SDS011;8926;49.720;6.576;2022-09-09T12:22:23;1.67;;;0.70;;
17614;SDS011;8926;49.720;6.576;2022-09-09T12:30:33;2.83;;;1.10;;
17614;SDS011;8926;49.720;6.576;2022-09-09T12:33:15;3.00;;;0.90;;
17614;SDS011;8926;49.720;6.576;2022-09-09T12:35:43;1.80;;;1.00;;
17614;SDS011;8926;49.720;6.576;2022-09-09T12:38:12;1.77;;;0.80;;
17614;SDS011;8926;49.720;6.576;2022-09-09T12:40:54;2.17;;;0.87;;
17614;SDS011;8926;49.720;6.576;2022-09-09T12:43:21;2.27;;;0.93;;
17614;SDS011;8926;49.720;6.576;2022-09-09T12:45:49;1.17;;;0.70;;
17614;SDS011;8926;49.720;6.576;2022-09-09T12:48:21;1.97;;;1.20;;
17614;SDS011;8926;49.720;6.576;2022-09-09T12:51:18;3.03;;;1.00;;
17614;SDS011;8926;49.720;6.576;2022-09-09T12:53:50;1.67;;;0.90;;
17614;SDS011;8926;49.720;6.576;2022-09-09T12:56:20;1.43;;;0.73;;
17614;SDS011;8926;49.720;6.576;2022-09-09T12:58:51;2.50;;;0.80;;
17614;SDS011;8926;49.720;6.576;2022-09-09T13:01:21;2.10;;;0.80;;
17614;SDS011;8926;49.720;6.576;2022-09-09T13:03:48;2.47;;;0.80;;
17614;SDS011;8926;49.720;6.576;2022-09-09T13:06:18;1.90;;;0.73;;
17614;SDS011;8926;49.720;6.576;2022-09-09T13:08:47;2.87;;;0.97;;
17614;SDS011;8926;49.720;6.576;2022-09-09T13:11:14;1.40;;;0.73;;
17614;SDS011;8926;49.720;6.576;2022-09-09T13:13:48;1.93;;;0.60;;
17614;SDS011;8926;49.720;6.576;2022-09-09T13:16:20;1.90;;;0.60;;
17614;SDS011;8926;49.720;6.576;2022-09-09T13:18:56;2.10;;;0.90;;
17614;SDS011;8926;49.720;6.576;2022-09-09T13:21:31;1.60;;;0.77;;
17614;SDS011;8926;49.720;6.576;2022-09-09T13:24:06;2.40;;;1.00;;
17614;SDS011;8926;49.720;6.576;2022-09-09T13:27:00;2.07;;;1.00;;
17614;SDS011;8926;49.720;6.576;2022-09-09T13:29:28;2.30;;;1.03;;
17614;SDS011;8926;49.720;6.576;2022-09-09T13:32:02;2.53;;;0.87;;
17614;SDS011;8926;49.720;6.576;2022-09-09T13:34:33;1.53;;;0.63;;
17614;SDS011;8926;49.720;6.576;2022-09-09T13:37:03;1.67;;;0.87;;
17614;SDS011;8926;49.720;6.576;2022-09-09T13:39:34;1.30;;;0.60;;
17614;SDS011;8926;49.720;6.576;2022-09-09T13:42:02;3.17;;;0.70;;
17614;SDS011;8926;49.720;6.576;2022-09-09T13:44:30;1.57;;;0.67;;
17614;SDS011;8926;49.720;6.576;2022-09-09T13:47:03;1.77;;;0.60;;
17614;SDS011;8926;49.720;6.576;2022-09-09T13:49:30;2.10;;;0.70;;
17614;SDS011;8926;49.720;6.576;2022-09-09T13:52:11;2.93;;;0.93;;
17614;SDS011;8926;49.720;6.576;2022-09-09T13:54:41;2.83;;;1.30;;
17614;SDS011;8926;49.720;6.576;2022-09-09T13:57:20;1.13;;;0.63;;
17614;SDS011;8926;49.720;6.576;2022-09-09T13:59:50;1.77;;;0.97;;
17614;SDS011;8926;49.720;6.576;2022-09-09T14:02:17;1.43;;;0.60;;
17614;SDS011;8926;49.720;6.576;2022-09-09T14:04:43;2.93;;;1.20;;
17614;SDS011;8926;49.720;6.576;2022-09-09T14:07:11;1.20;;;1.07;;
17614;SDS011;8926;49.720;6.576;2022-09-09T14:09:39;0.83;;;0.70;;
17614;SDS011;8926;49.720;6.576;2022-09-09T14:12:05;0.60;;;0.60;;
17614;SDS011;8926;49.720;6.576;2022-09-09T14:14:33;0.97;;;0.50;;
17614;SDS011;8926;49.720;6.576;2022-09-09T14:16:58;0.90;;;0.47;;
17614;SDS011;8926;49.720;6.576;2022-09-09T14:19:23;0.93;;;0.40;;
17614;SDS011;8926;49.720;6.576;2022-09-09T14:21:49;0.83;;;0.40;;
17614;SDS011;8926;49.720;6.576;2022-09-09T14:24:15;0.90;;;0.40;;
17614;SDS011;8926;49.720;6.576;2022-09-09T14:26:41;0.70;;;0.47;;
17614;SDS011;8926;49.720;6.576;2022-09-09T14:29:06;1.13;;;0.37;;
17614;SDS011;8926;49.720;6.576;2022-09-09T14:31:32;0.70;;;0.40;;
17614;SDS011;8926;49.720;6.576;2022-09-09T14:33:57;0.70;;;0.43;;
17614;SDS011;8926;49.720;6.576;2022-09-09T14:36:23;0.20;;;0.20;;
17614;SDS011;8926;49.720;6.576;2022-09-09T14:38:49;1.07;;;0.30;;
17614;SDS011;8926;49.720;6.576;2022-09-09T14:41:16;0.20;;;0.20;;
17614;SDS011;8926;49.720;6.576;2022-09-09T14:43:42;0.23;;;0.20;;
17614;SDS011;8926;49.720;6.576;2022-09-09T14:46:09;0.33;;;0.20;;
17614;SDS011;8926;49.720;6.576;2022-09-09T14:48:37;0.90;;;0.60;;
17614;SDS011;8926;49.720;6.576;2022-09-09T14:51:12;0.30;;;0.23;;
17614;SDS011;8926;49.720;6.576;2022-09-09T14:53:40;0.40;;;0.40;;
17614;SDS011;8926;49.720;6.576;2022-09-09T14:56:11;0.30;;;0.30;;
17614;SDS011;8926;49.720;6.576;2022-09-09T14:58:38;0.10;;;0.10;;
17614;SDS011;8926;49.720;6.576;2022-09-09T15:01:07;0.30;;;0.20;;
17614;SDS011;8926;49.720;6.576;2022-09-09T15:03:35;0.10;;;0.10;;
17614;SDS011;8926;49.720;6.576;2022-09-09T15:06:08;0.30;;;0.20;;
17614;SDS011;8926;49.720;6.576;2022-09-09T15:08:36;0.30;;;0.30;;
17614;SDS011;8926;49.720;6.576;2022-09-09T15:11:02;0.20;;;0.20;;
17614;SDS011;8926;49.720;6.576;2022-09-09T15:13:29;0.20;;;0.17;;
17614;SDS011;8926;49.720;6.576;2022-09-09T15:15:54;0.37;;;0.10;;
17614;SDS011;8926;49.720;6.576;2022-09-09T15:18:20;0.37;;;0.37;;
17614;SDS011;8926;49.720;6.576;2022-09-09T15:20:46;0.73;;;0.33;;
17614;SDS011;8926;49.720;6.576;2022-09-09T15:23:12;0.87;;;0.40;;
17614;SDS011;8926;49.720;6.576;2022-09-09T15:25:39;0.10;;;0.10;;
17614;SDS011;8926;49.720;6.576;2022-09-09T15:28:14;0.00;;;0.00;;
17614;SDS011;8926;49.720;6.576;2022-09-09T15:30:39;0.30;;;0.20;;
17614;SDS011;8926;49.720;6.576;2022-09-09T15:33:07;0.60;;;0.30;;
17614;SDS011;8926;49.720;6.576;2022-09-09T15:35:33;0.30;;;0.17;;
17614;SDS011;8926;49.720;6.576;2022-09-09T15:38:01;0.70;;;0.30;;
17614;SDS011;8926;49.720;6.576;2022-09-09T15:40:27;0.60;;;0.43;;
17614;SDS011;8926;49.720;6.576;2022-09-09T15:42:52;0.30;;;0.23;;
17614;SDS011;8926;49.720;6.576;2022-09-09T15:45:17;0.40;;;0.30;;
17614;SDS011;8926;49.720;6.576;2022-09-09T15:47:43;0.63;;;0.20;;
17614;SDS011;8926;49.720;6.576;2022-09-09T15:50:08;0.50;;;0.30;;
17614;SDS011;8926;49.720;6.576;2022-09-09T15:52:33;1.13;;;0.50;;
17614;SDS011;8926;49.720;6.576;2022-09-09T15:54:59;0.40;;;0.30;;
17614;SDS011;8926;49.720;6.576;2022-09-09T15:57:25;1.03;;;0.30;;
17614;SDS011;8926;49.720;6.576;2022-09-09T15:59:51;0.70;;;0.40;;
17614;SDS011;8926;49.720;6.576;2022-09-09T16:02:16;0.40;;;0.30;;
17614;SDS011;8926;49.720;6.576;2022-09-09T16:04:43;1.17;;;0.53;;
17614;SDS011;8926;49.720;6.576;2022-09-09T16:07:08;1.10;;;0.40;;
17614;SDS011;8926;49.720;6.576;2022-09-09T16:09:33;1.30;;;0.70;;
17614;SDS011;8926;49.720;6.576;2022-09-09T16:12:00;0.97;;;0.57;;
17614;SDS011;8926;49.720;6.576;2022-09-09T16:14:27;1.27;;;0.60;;
17614;SDS011;8926;49.720;6.576;2022-09-09T16:16:53;1.10;;;0.83;;
17614;SDS011;8926;49.720;6.576;2022-09-09T16:19:18;2.03;;;0.90;;
17614;SDS011;8926;49.720;6.576;2022-09-09T16:21:45;1.13;;;0.73;;
17614;SDS011;8926;49.720;6.576;2022-09-09T16:24:13;0.73;;;0.60;;
17614;SDS011;8926;49.720;6.576;2022-09-09T16:26:41;0.50;;;0.47;;
17614;SDS011;8926;49.720;6.576;2022-09-09T16:29:09;0.70;;;0.40;;
17614;SDS011;8926;49.720;6.576;2022-09-09T16:31:34;0.60;;;0.43;;
17614;SDS011;8926;49.720;6.576;2022-09-09T16:34:00;0.60;;;0.37;;
17614;SDS011;8926;49.720;6.576;2022-09-09T16:36:28;0.53;;;0.53;;
17614;SDS011;8926;49.720;6.576;2022-09-09T16:38:56;0.70;;;0.70;;
17614;SDS011;8926;49.720;6.576;2022-09-09T16:41:23;0.60;;;0.60;;
17614;SDS011;8926;49.720;6.576;2022-09-09T16:43:52;0.53;;;0.33;;
17614;SDS011;8926;49.720;6.576;2022-09-09T16:46:19;0.67;;;0.40;;
17614;SDS011;8926;49.720;6.576;2022-09-09T16:48:45;0.53;;;0.40;;
17614;SDS011;8926;49.720;6.576;2022-09-09T16:53:45;0.30;;;0.30;;